ASN logo
Last updated: 25 October 2020
Statuts:Préliminaire
Date:mardi 30 décembre 2014
Heure:15:22
Type/Sous-type:Silhouette image of generic B734 model; specific model in this crash may look slightly different
Boeing 737-4H6
Compagnie:Shaheen Air
Immatriculation: AP-BJN
Numéro de série: 26460/2533
Année de Fabrication: 1993-09-21 (21 years 4 months)
Moteurs: 2 CFMI CFM56-3C1
Equipage:victimes: 0 / à bord:
Passagers:victimes: 0 / à bord:
Total:victimes: 0 / à bord:
Dégats de l'appareil: Substantiels
Conséquences: Written off (damaged beyond repair)
Lieu de l'accident:Lahore-Allama Iqbal International Airport (LHE) (   Pakistan)
Phase de vol: A l'atterrissage (LDG)
Nature:Transport de Passagers Nat.
Aéroport de départ:Karachi-Jinnah International Airport (KHI/OPKC), Pakistan
Aéroport de destination:Lahore-Allama Iqbal International Airport (LHE/OPLA), Pakistan
Numéro de vol:NL147
Détails:
A Shaheen Air Boeing 737-4H6, registered AP-BJN, sustained damage in a runway excursion accident at Lahore-Allama Iqbal International Airport (LHE), Pakistan.
Flight 147 from Karachi (KHI) was carrying 172 passengers and an unknown number of crew members. There were no injuries.
After landing on runway 36L the airplane went to the right off the side of the runway. It came to rest in the grass with a collapsed
left hand main gear. Passengers deplaned using air stairs via the forward left hand passenger door.
Photos obtained by the Aviation Safety Network show evidence of a bird strike on the nose landing gear. Blood spatter and a feather were present on the nosegear.

The airplane, AP-BJN, had been involved in a prior accident on April 22, 2012 when the left hand undercarriage strut penetrated through the upper wing upon landing at Karachi. The aircraft was repaired and flew again on May 16, 2014.

Sources:
» ASN Accident Description Shaheen Air Flight NL122 (22 April 2012)

METAR Weather report:
09:55 UTC / 14:55 local time:
OPLA 300955Z 09003KT 1000 FU FEW100 12/07 Q1015 BECMG 800

10:25 UTC / 15:25 local time:
OPLA 301025Z 04003KT 1500 FU SCT200 12/08 Q1014 BECMG 1000 A2995
Winds: 40 degrees at 3 knots; Visibility: 1500 m in smoke; Sscattered clouds at 20000 feet; Temperature: 12°C; Dewpoint: 8°C; Pressure: 1014 mb;

10:55 UTC / 15:55 local time:
OPLA 301055Z 00000KT 1500 FU SCT200 12/08 Q1014/A29.95 BECMG 1000 BR


Photos

Add your photo of this accident or aircraft

Video, social media

Plan
Ce plan montre l'aéroport de départ ainsi que la supposée destination du vol. La ligne fixe reliant les deux aéroports n'est pas le plan de vol exact.
La distance entre Karachi-Jinnah International Airport et Lahore-Allama Iqbal International Airport est de 1015 km (635 miles).
Accident location: Approximate; accuracy within a few kilometers.

Les informations ci-dessus ne représentent pas l'opinion de la 'Flight Safety Foundation' ou de 'Aviation Safety Network' sur les causes de l'accident. Ces informations prélimimaires sont basées sur les faits tel qu'ils sont connus à ce jour.
languages: languages

Share

Boeing 737-400

  • 486 built
  • 20ème loss
» safety profile

 Pakistan
  • le accident 41ème le plus grave (à ce moment là)
  • le accident 43ème le plus grave (en ce moment)
» safety profile